createdAt,value
2023-04-02T00:00:27.234Z,92070.00
2023-04-02T00:01:27.258Z,92072.00
2023-04-02T00:02:27.540Z,92074.00
2023-04-02T00:03:27.356Z,92074.00
2023-04-02T00:04:27.308Z,92076.00
2023-04-02T00:05:27.322Z,92076.00
2023-04-02T00:06:27.332Z,92076.00
2023-04-02T00:07:27.364Z,92076.00
2023-04-02T00:08:27.381Z,92078.00
2023-04-02T00:09:27.394Z,92078.00
2023-04-02T00:10:27.412Z,92076.00
2023-04-02T00:11:27.438Z,92076.00
2023-04-02T00:12:27.439Z,92072.00
2023-04-02T00:13:27.459Z,92074.00
2023-04-02T00:14:27.476Z,92072.00
2023-04-02T00:15:27.508Z,92070.00
2023-04-02T00:16:27.590Z,92072.00
2023-04-02T00:17:27.560Z,92072.00
2023-04-02T00:18:27.659Z,92070.00
2023-04-02T00:19:27.584Z,92068.00
2023-04-02T00:20:27.620Z,92068.00
2023-04-02T00:21:27.637Z,92066.00
2023-04-02T00:22:27.639Z,92064.00
2023-04-02T00:23:27.662Z,92062.00
2023-04-02T00:24:27.670Z,92060.00
2023-04-02T00:25:27.706Z,92058.00
2023-04-02T00:26:27.708Z,92058.00
2023-04-02T00:27:27.764Z,92058.00
2023-04-02T00:28:27.759Z,92058.00
2023-04-02T00:29:27.760Z,92058.00
2023-04-02T00:30:27.769Z,92060.00
2023-04-02T00:31:27.811Z,92064.00
2023-04-02T00:32:27.866Z,92062.00
2023-04-02T00:33:27.822Z,92062.00
2023-04-02T00:34:27.868Z,92064.00
2023-04-02T00:35:27.861Z,92064.00
2023-04-02T00:36:27.881Z,92064.00
2023-04-02T00:37:27.966Z,92066.00
2023-04-02T00:38:27.937Z,92066.00
2023-04-02T00:39:27.960Z,92064.00
2023-04-02T00:40:27.986Z,92064.00
2023-04-02T00:41:27.988Z,92064.00
2023-04-02T00:42:28.015Z,92064.00
2023-04-02T00:43:28.029Z,92066.00
2023-04-02T00:44:28.061Z,92066.00
2023-04-02T00:45:28.072Z,92064.00
2023-04-02T00:46:28.181Z,92064.00
2023-04-02T00:47:28.189Z,92064.00
2023-04-02T00:48:28.142Z,92062.00
2023-04-02T00:49:28.170Z,92064.00
2023-04-02T00:50:28.191Z,92064.00
2023-04-02T00:51:28.214Z,92064.00
2023-04-02T00:52:28.256Z,92062.00
2023-04-02T00:53:28.268Z,92062.00
2023-04-02T00:54:28.291Z,92064.00
2023-04-02T00:55:28.306Z,92062.00
2023-04-02T00:56:28.323Z,92064.00
2023-04-02T00:57:28.538Z,92064.00
2023-04-02T00:58:28.375Z,92064.00
2023-04-02T00:59:28.413Z,92066.00
2023-04-02T01:00:28.505Z,92062.00
2023-04-02T01:01:28.464Z,92064.00
2023-04-02T01:02:28.587Z,92064.00
2023-04-02T01:03:28.704Z,92064.00
2023-04-02T01:04:28.520Z,92064.00
2023-04-02T01:05:28.546Z,92064.00
2023-04-02T01:06:28.553Z,92066.00
2023-04-02T01:07:28.580Z,92066.00
2023-04-02T01:08:28.599Z,92066.00
2023-04-02T01:09:28.609Z,92068.00
2023-04-02T01:10:28.631Z,92064.00
2023-04-02T01:11:28.653Z,92064.00
2023-04-02T01:12:28.670Z,92068.00
2023-04-02T01:13:28.698Z,92068.00
2023-04-02T01:14:28.736Z,92066.00
2023-04-02T01:15:28.738Z,92070.00
2023-04-02T01:16:28.833Z,92070.00
2023-04-02T01:17:28.807Z,92072.00
2023-04-02T01:18:28.817Z,92074.00
2023-04-02T01:19:28.807Z,92076.00
2023-04-02T01:20:28.838Z,92074.00
2023-04-02T01:21:28.860Z,92074.00
2023-04-02T01:22:28.881Z,92074.00
2023-04-02T01:23:28.906Z,92076.00
2023-04-02T01:24:28.921Z,92076.00
2023-04-02T01:25:28.956Z,92078.00
2023-04-02T01:26:28.967Z,92076.00
2023-04-02T01:27:29.006Z,92078.00
2023-04-02T01:28:29.005Z,92078.00
2023-04-02T01:29:29.029Z,92080.00
2023-04-02T01:30:29.042Z,92080.00
2023-04-02T01:31:29.099Z,92078.00
2023-04-02T01:32:29.107Z,92082.00
2023-04-02T01:33:29.103Z,92082.00
2023-04-02T01:34:29.116Z,92082.00
2023-04-02T01:35:29.132Z,92086.00
2023-04-02T01:36:29.161Z,92086.00
2023-04-02T01:37:29.185Z,92088.00
2023-04-02T01:38:29.213Z,92090.00
2023-04-02T01:39:29.231Z,92090.00
2023-04-02T01:40:29.251Z,92088.00
2023-04-02T01:41:29.279Z,92086.00
2023-04-02T01:42:29.314Z,92090.00
2023-04-02T01:43:29.323Z,92088.00
2023-04-02T01:44:29.345Z,92093.00
2023-04-02T01:45:29.362Z,92092.00
2023-04-02T01:46:29.467Z,92095.00
2023-04-02T01:47:29.412Z,92093.00
2023-04-02T01:48:29.414Z,92095.00
2023-04-02T01:49:29.442Z,92095.00
2023-04-02T01:50:29.463Z,92095.00
2023-04-02T01:51:29.486Z,92095.00
2023-04-02T01:52:29.495Z,92095.00
2023-04-02T01:53:29.536Z,92097.00
2023-04-02T01:54:29.549Z,92097.00
2023-04-02T01:55:29.557Z,92095.00
2023-04-02T01:56:29.577Z,92095.00
2023-04-02T01:57:29.604Z,92093.00
2023-04-02T01:58:29.607Z,92095.00
2023-04-02T01:59:29.664Z,92093.00
2023-04-02T02:00:29.667Z,92097.00
2023-04-02T02:01:29.659Z,92097.00
2023-04-02T02:02:29.753Z,92097.00
2023-04-02T02:03:29.707Z,92099.00
2023-04-02T02:04:29.719Z,92099.00
2023-04-02T02:05:29.731Z,92107.00
2023-04-02T02:06:29.763Z,92107.00
2023-04-02T02:07:29.782Z,92109.00
2023-04-02T02:08:30.305Z,92111.00
2023-04-02T02:09:29.820Z,92113.00
2023-04-02T02:10:29.847Z,92115.00
2023-04-02T02:11:29.875Z,92115.00
2023-04-02T02:12:29.909Z,92115.00
2023-04-02T02:13:29.914Z,92111.00
2023-04-02T02:14:29.945Z,92115.00
2023-04-02T02:15:29.957Z,92115.00
2023-04-02T02:16:30.159Z,92119.00
2023-04-02T02:17:30.026Z,92115.00
2023-04-02T02:18:30.032Z,92119.00
2023-04-02T02:19:30.053Z,92119.00
2023-04-02T02:20:30.084Z,92123.00
2023-04-02T02:21:30.069Z,92123.00
2023-04-02T02:22:30.105Z,92129.00
2023-04-02T02:23:30.131Z,92129.00
2023-04-02T02:24:30.138Z,92130.00
2023-04-02T02:25:30.152Z,92129.00
2023-04-02T02:26:30.179Z,92132.00
2023-04-02T02:27:30.207Z,92132.00
2023-04-02T02:28:30.214Z,92134.00
2023-04-02T02:29:30.229Z,92134.00
2023-04-02T02:30:30.254Z,92134.00
2023-04-02T02:31:30.286Z,92138.00
2023-04-02T02:32:30.332Z,92132.00
2023-04-02T02:33:30.320Z,92138.00
2023-04-02T02:34:30.334Z,92134.00
2023-04-02T02:35:30.355Z,92136.00
2023-04-02T02:36:30.383Z,92132.00
2023-04-02T02:37:30.396Z,92134.00
2023-04-02T02:38:30.414Z,92134.00
2023-04-02T02:39:30.434Z,92134.00
2023-04-02T02:40:30.463Z,92134.00
2023-04-02T02:41:30.475Z,92134.00
2023-04-02T02:42:30.490Z,92136.00
2023-04-02T02:43:30.512Z,92138.00
2023-04-02T02:44:30.538Z,92142.00
2023-04-02T02:45:30.570Z,92142.00
2023-04-02T02:46:30.622Z,92144.00
2023-04-02T02:47:30.629Z,92142.00
2023-04-02T02:48:30.623Z,92146.00
2023-04-02T02:49:30.637Z,92148.00
2023-04-02T02:50:30.659Z,92148.00
2023-04-02T02:51:30.685Z,92152.00
2023-04-02T02:52:30.723Z,92154.00
2023-04-02T02:53:30.741Z,92156.00
2023-04-02T02:54:30.746Z,92156.00
2023-04-02T02:55:30.772Z,92156.00
2023-04-02T02:56:30.804Z,92156.00
2023-04-02T02:57:30.995Z,92158.00
2023-04-02T02:58:30.849Z,92158.00
2023-04-02T02:59:30.878Z,92158.00
2023-04-02T03:00:30.920Z,92158.00
2023-04-02T03:01:30.958Z,92162.00
2023-04-02T03:02:31.023Z,92162.00
2023-04-02T03:03:31.158Z,92162.00
2023-04-02T03:04:31.008Z,92160.00
2023-04-02T03:05:31.037Z,92162.00
2023-04-02T03:06:31.061Z,92164.00
2023-04-02T03:07:31.077Z,92164.00
2023-04-02T03:08:31.096Z,92162.00
2023-04-02T03:09:31.129Z,92162.00
2023-04-02T03:10:31.330Z,92162.00
2023-04-02T03:11:31.168Z,92164.00
2023-04-02T03:12:31.220Z,92164.00
2023-04-02T03:13:31.233Z,92164.00
2023-04-02T03:14:31.264Z,92164.00
2023-04-02T03:15:31.285Z,92166.00
2023-04-02T03:16:31.315Z,92166.00
2023-04-02T03:17:31.346Z,92166.00
2023-04-02T03:18:31.370Z,92170.00
2023-04-02T03:19:31.394Z,92170.00
2023-04-02T03:20:31.440Z,92170.00
2023-04-02T03:21:31.438Z,92168.00
2023-04-02T03:22:31.477Z,92168.00
2023-04-02T03:23:31.499Z,92170.00
2023-04-02T03:24:31.519Z,92172.00
2023-04-02T03:25:31.561Z,92170.00
2023-04-02T03:26:31.565Z,92170.00
2023-04-02T03:27:31.589Z,92176.00
2023-04-02T03:28:31.625Z,92174.00
2023-04-02T03:29:31.654Z,92172.00
2023-04-02T03:30:31.681Z,92170.00
2023-04-02T03:31:31.778Z,92170.00
2023-04-02T03:32:31.728Z,92174.00
2023-04-02T03:33:31.752Z,92176.00
2023-04-02T03:34:31.778Z,92176.00
2023-04-02T03:35:31.800Z,92177.00
2023-04-02T03:36:31.830Z,92177.00
2023-04-02T03:37:31.853Z,92179.00
2023-04-02T03:38:31.897Z,92179.00
2023-04-02T03:39:31.902Z,92181.00
2023-04-02T03:40:31.918Z,92183.00
2023-04-02T03:41:32.833Z,92183.00
2023-04-02T03:42:31.967Z,92185.00
2023-04-02T03:43:31.991Z,92187.00
2023-04-02T03:44:32.016Z,92187.00
2023-04-02T03:45:32.066Z,92187.00
2023-04-02T03:46:32.140Z,92187.00
2023-04-02T03:47:32.106Z,92187.00
2023-04-02T03:48:32.118Z,92189.00
2023-04-02T03:49:32.150Z,92191.00
2023-04-02T03:50:32.178Z,92191.00
2023-04-02T03:51:32.196Z,92189.00
2023-04-02T03:52:32.232Z,92189.00
2023-04-02T03:53:32.361Z,92195.00
2023-04-02T03:54:32.292Z,92195.00
2023-04-02T03:55:32.487Z,92195.00
2023-04-02T03:56:32.347Z,92193.00
2023-04-02T03:57:32.490Z,92193.00
2023-04-02T03:58:32.393Z,92197.00
2023-04-02T03:59:32.414Z,92197.00
2023-04-02T04:00:32.449Z,92195.00
2023-04-02T04:01:32.481Z,92197.00
2023-04-02T04:02:32.530Z,92195.00
2023-04-02T04:03:32.538Z,92197.00
2023-04-02T04:04:32.582Z,92201.00
2023-04-02T04:05:32.960Z,92199.00
2023-04-02T04:06:32.586Z,92203.00
2023-04-02T04:07:32.620Z,92203.00
2023-04-02T04:08:32.659Z,92205.00
2023-04-02T04:09:32.677Z,92207.00
2023-04-02T04:10:32.680Z,92209.00
2023-04-02T04:11:32.717Z,92211.00
2023-04-02T04:12:32.752Z,92211.00
2023-04-02T04:13:32.776Z,92211.00
2023-04-02T04:14:32.807Z,92213.00
2023-04-02T04:15:33.059Z,92217.00
2023-04-02T04:16:32.907Z,92217.00
2023-04-02T04:17:32.934Z,92221.00
2023-04-02T04:18:32.897Z,92221.00
2023-04-02T04:19:32.919Z,92223.00
2023-04-02T04:20:32.942Z,92223.00
2023-04-02T04:21:32.969Z,92224.00
2023-04-02T04:22:33.001Z,92226.00
2023-04-02T04:23:33.031Z,92228.00
2023-04-02T04:24:33.043Z,92228.00
2023-04-02T04:25:33.308Z,92230.00
2023-04-02T04:26:33.101Z,92232.00
2023-04-02T04:27:33.132Z,92232.00
2023-04-02T04:28:33.157Z,92232.00
2023-04-02T04:29:33.187Z,92232.00
2023-04-02T04:30:33.197Z,92232.00
2023-04-02T04:31:33.244Z,92232.00
2023-04-02T04:32:33.297Z,92234.00
2023-04-02T04:33:33.335Z,92236.00
2023-04-02T04:34:33.297Z,92238.00
2023-04-02T04:35:33.439Z,92236.00
2023-04-02T04:36:33.347Z,92242.00
2023-04-02T04:37:33.372Z,92246.00
2023-04-02T04:38:33.405Z,92242.00
2023-04-02T04:39:33.439Z,92246.00
2023-04-02T04:40:33.467Z,92250.00
2023-04-02T04:41:33.511Z,92250.00
2023-04-02T04:42:33.549Z,92250.00
2023-04-02T04:43:33.554Z,92248.00
2023-04-02T04:44:33.592Z,92250.00
2023-04-02T04:45:33.903Z,92250.00
2023-04-02T04:46:33.688Z,92248.00
2023-04-02T04:47:33.694Z,92252.00
2023-04-02T04:48:35.225Z,92256.00
2023-04-02T04:49:33.908Z,92256.00
2023-04-02T04:50:33.999Z,92258.00
2023-04-02T04:51:33.970Z,92264.00
2023-04-02T04:52:34.021Z,92264.00
2023-04-02T04:53:34.048Z,92268.00
2023-04-02T04:54:34.071Z,92266.00
2023-04-02T04:55:34.377Z,92271.00
2023-04-02T04:56:34.152Z,92271.00
2023-04-02T04:57:34.163Z,92271.00
2023-04-02T04:58:34.193Z,92271.00
2023-04-02T04:59:34.234Z,92271.00
2023-04-02T05:00:34.281Z,92273.00
2023-04-02T05:01:34.367Z,92275.00
2023-04-02T05:02:34.351Z,92275.00
2023-04-02T05:03:34.364Z,92277.00
2023-04-02T05:04:34.412Z,92279.00
2023-04-02T05:05:34.656Z,92283.00
2023-04-02T05:06:34.460Z,92283.00
2023-04-02T05:07:34.492Z,92287.00
2023-04-02T05:08:34.524Z,92289.00
2023-04-02T05:09:34.631Z,92289.00
2023-04-02T05:10:34.575Z,92287.00
2023-04-02T05:11:34.614Z,92289.00
2023-04-02T05:12:34.646Z,92289.00
2023-04-02T05:13:34.679Z,92289.00
2023-04-02T05:14:34.706Z,92289.00
2023-04-02T05:15:34.992Z,92289.00
2023-04-02T05:16:34.906Z,92289.00
2023-04-02T05:17:34.887Z,92287.00
2023-04-02T05:18:34.847Z,92287.00
2023-04-02T05:19:34.897Z,92287.00
2023-04-02T05:20:34.937Z,92289.00
2023-04-02T05:21:34.977Z,92291.00
2023-04-02T05:22:35.011Z,92291.00
2023-04-02T05:23:35.046Z,92299.00
2023-04-02T05:24:35.067Z,92297.00
2023-04-02T05:25:35.296Z,92297.00
2023-04-02T05:26:35.139Z,92299.00
2023-04-02T05:27:35.176Z,92301.00
2023-04-02T05:28:35.212Z,92301.00
2023-04-02T05:29:35.245Z,92301.00
2023-04-02T05:30:35.272Z,92305.00
2023-04-02T05:31:35.363Z,92303.00
2023-04-02T05:32:35.387Z,92303.00
2023-04-02T05:33:35.408Z,92303.00
2023-04-02T05:34:35.430Z,92305.00
2023-04-02T05:35:35.723Z,92307.00
2023-04-02T05:36:35.507Z,92309.00
2023-04-02T05:37:35.540Z,92305.00
2023-04-02T05:38:35.590Z,92307.00
2023-04-02T05:39:35.600Z,92311.00
2023-04-02T05:40:35.628Z,92307.00
2023-04-02T05:41:35.647Z,92311.00
2023-04-02T05:42:35.689Z,92313.00
2023-04-02T05:43:35.721Z,92311.00
2023-04-02T05:44:37.233Z,92315.00
2023-04-02T05:45:35.876Z,92317.00
2023-04-02T05:46:35.780Z,92315.00
2023-04-02T05:47:35.765Z,92317.00
2023-04-02T05:48:35.713Z,92318.00
2023-04-02T05:49:35.712Z,92315.00
2023-04-02T05:50:35.697Z,92317.00
2023-04-02T05:51:35.680Z,92318.00
2023-04-02T05:52:35.667Z,92317.00
2023-04-02T05:53:35.649Z,92317.00
2023-04-02T05:54:35.682Z,92318.00
2023-04-02T05:55:35.841Z,92317.00
2023-04-02T05:56:35.602Z,92317.00
2023-04-02T05:57:44.604Z,92315.00
2023-04-02T05:58:37.225Z,92318.00
2023-04-02T05:59:35.552Z,92318.00
2023-04-02T06:00:35.525Z,92313.00
2023-04-02T06:01:35.531Z,92318.00
2023-04-02T06:02:35.596Z,92315.00
2023-04-02T06:03:35.566Z,92318.00
2023-04-02T06:04:35.460Z,92318.00
2023-04-02T06:05:35.617Z,92320.00
2023-04-02T06:06:35.448Z,92320.00
2023-04-02T06:07:35.451Z,92322.00
2023-04-02T06:08:35.477Z,92320.00
2023-04-02T06:09:35.500Z,92324.00
2023-04-02T06:10:35.529Z,92326.00
2023-04-02T06:11:35.569Z,92324.00
2023-04-02T06:12:35.602Z,92324.00
2023-04-02T06:13:35.638Z,92326.00
2023-04-02T06:14:35.649Z,92324.00
2023-04-02T06:15:35.882Z,92324.00
2023-04-02T06:16:35.769Z,92326.00
2023-04-02T06:17:35.768Z,92324.00
2023-04-02T06:18:35.768Z,92322.00
2023-04-02T06:19:35.792Z,92326.00
2023-04-02T06:20:35.822Z,92322.00
2023-04-02T06:21:35.859Z,92324.00
2023-04-02T06:22:35.887Z,92322.00
2023-04-02T06:23:35.917Z,92326.00
2023-04-02T06:24:35.964Z,92328.00
2023-04-02T06:25:36.145Z,92324.00
2023-04-02T06:26:36.001Z,92326.00
2023-04-02T06:27:36.076Z,92328.00
2023-04-02T06:28:36.079Z,92328.00
2023-04-02T06:29:36.100Z,92324.00
2023-04-02T06:30:36.193Z,92324.00
2023-04-02T06:31:36.148Z,92328.00
2023-04-02T06:32:36.202Z,92328.00
2023-04-02T06:33:36.217Z,92328.00
2023-04-02T06:34:36.253Z,92330.00
2023-04-02T06:35:36.471Z,92328.00
2023-04-02T06:36:36.292Z,92326.00
2023-04-02T06:37:36.328Z,92328.00
2023-04-02T06:38:36.366Z,92328.00
2023-04-02T06:39:36.396Z,92332.00
2023-04-02T06:40:36.422Z,92332.00
2023-04-02T06:41:36.447Z,92332.00
2023-04-02T06:42:36.481Z,92332.00
2023-04-02T06:43:36.611Z,92332.00
2023-04-02T06:44:36.550Z,92332.00
2023-04-02T06:45:36.783Z,92332.00
2023-04-02T06:46:36.626Z,92334.00
2023-04-02T06:47:36.683Z,92336.00
2023-04-02T06:48:36.663Z,92336.00
2023-04-02T06:49:36.683Z,92338.00
2023-04-02T06:50:36.717Z,92334.00
2023-04-02T06:51:36.758Z,92334.00
2023-04-02T06:52:36.778Z,92336.00
2023-04-02T06:53:36.813Z,92336.00
2023-04-02T06:54:36.850Z,92336.00
2023-04-02T06:55:37.078Z,92336.00
2023-04-02T06:56:36.898Z,92338.00
2023-04-02T06:57:36.957Z,92338.00
2023-04-02T06:58:36.953Z,92338.00
2023-04-02T06:59:36.981Z,92340.00
2023-04-02T07:00:37.024Z,92340.00
2023-04-02T07:01:37.070Z,92340.00
2023-04-02T07:02:37.136Z,92340.00
2023-04-02T07:03:37.093Z,92340.00
2023-04-02T07:04:37.165Z,92338.00
2023-04-02T07:05:37.385Z,92338.00
2023-04-02T07:06:37.175Z,92340.00
2023-04-02T07:07:37.229Z,92338.00
2023-04-02T07:08:37.232Z,92338.00
2023-04-02T07:09:37.261Z,92338.00
2023-04-02T07:10:37.305Z,92334.00
2023-04-02T07:11:37.298Z,92336.00
2023-04-02T07:12:37.348Z,92336.00
2023-04-02T07:13:37.372Z,92334.00
2023-04-02T07:14:37.443Z,92334.00
2023-04-02T07:15:37.674Z,92336.00
2023-04-02T07:16:37.442Z,92332.00
2023-04-02T07:17:37.501Z,92336.00
2023-04-02T07:18:37.496Z,92338.00
2023-04-02T07:19:37.522Z,92338.00
2023-04-02T07:20:37.622Z,92336.00
2023-04-02T07:21:37.589Z,92336.00
2023-04-02T07:22:37.618Z,92338.00
2023-04-02T07:23:37.632Z,92338.00
2023-04-02T07:24:37.663Z,92336.00
2023-04-02T07:25:37.827Z,92340.00
2023-04-02T07:26:37.708Z,92340.00
2023-04-02T07:27:37.738Z,92340.00
2023-04-02T07:28:37.765Z,92340.00
2023-04-02T07:29:37.797Z,92344.00
2023-04-02T07:30:37.807Z,92338.00
2023-04-02T07:31:37.872Z,92342.00
2023-04-02T07:32:37.876Z,92340.00
2023-04-02T07:33:37.889Z,92340.00
2023-04-02T07:34:37.904Z,92338.00
2023-04-02T07:35:38.132Z,92338.00
2023-04-02T07:36:37.940Z,92338.00
2023-04-02T07:37:37.952Z,92338.00
2023-04-02T07:38:38.002Z,92340.00
2023-04-02T07:39:40.123Z,92338.00
2023-04-02T07:40:38.019Z,92340.00
2023-04-02T07:41:37.971Z,92338.00
2023-04-02T07:42:37.963Z,92340.00
2023-04-02T07:43:37.941Z,92340.00
2023-04-02T07:44:37.933Z,92342.00
2023-04-02T07:45:38.168Z,92338.00
2023-04-02T07:46:37.931Z,92338.00
2023-04-02T07:47:37.925Z,92340.00
2023-04-02T07:48:37.874Z,92338.00
2023-04-02T07:49:37.904Z,92340.00
2023-04-02T07:50:37.868Z,92340.00
2023-04-02T07:51:37.849Z,92340.00
2023-04-02T07:52:40.303Z,92340.00
2023-04-02T07:53:38.048Z,92340.00
2023-04-02T07:54:38.052Z,92340.00
2023-04-02T07:55:38.062Z,92336.00
2023-04-02T07:56:38.087Z,92336.00
2023-04-02T07:57:38.112Z,92336.00
2023-04-02T07:58:38.105Z,92336.00
2023-04-02T07:59:38.257Z,92336.00
2023-04-02T08:00:38.130Z,92338.00
2023-04-02T08:01:38.188Z,92338.00
2023-04-02T08:02:38.160Z,92334.00
2023-04-02T08:03:38.249Z,92334.00
2023-04-02T08:04:38.174Z,92336.00
2023-04-02T08:05:38.297Z,92334.00
2023-04-02T08:06:38.426Z,92334.00
2023-04-02T08:07:38.206Z,92332.00
2023-04-02T08:08:38.222Z,92334.00
2023-04-02T08:09:38.239Z,92334.00
2023-04-02T08:10:38.260Z,92334.00
2023-04-02T08:11:38.234Z,92332.00
2023-04-02T08:12:38.256Z,92332.00
2023-04-02T08:13:38.262Z,92332.00
2023-04-02T08:14:38.289Z,92338.00
2023-04-02T08:15:38.309Z,92336.00
2023-04-02T08:16:38.311Z,92338.00
2023-04-02T08:17:38.312Z,92340.00
2023-04-02T08:18:38.325Z,92340.00
2023-04-02T08:19:47.731Z,92340.00
2023-04-02T08:20:39.307Z,92342.00
2023-04-02T08:21:38.280Z,92340.00
2023-04-02T08:22:38.289Z,92340.00
2023-04-02T08:23:38.250Z,92340.00
2023-04-02T08:24:38.226Z,92342.00
2023-04-02T08:25:38.217Z,92340.00
2023-04-02T08:26:38.216Z,92342.00
2023-04-02T08:27:38.242Z,92342.00
2023-04-02T08:28:38.164Z,92344.00
2023-04-02T08:29:38.151Z,92344.00
2023-04-02T08:30:38.148Z,92344.00
2023-04-02T08:31:38.127Z,92344.00
2023-04-02T08:32:38.143Z,92344.00
2023-04-02T08:33:38.078Z,92346.00
2023-04-02T08:34:38.047Z,92346.00
2023-04-02T08:35:38.360Z,92348.00
2023-04-02T08:36:38.000Z,92346.00
2023-04-02T08:37:37.978Z,92348.00
2023-04-02T08:38:37.975Z,92348.00
2023-04-02T08:39:37.942Z,92350.00
2023-04-02T08:40:37.952Z,92346.00
2023-04-02T08:41:37.964Z,92350.00
2023-04-02T08:42:37.972Z,92348.00
2023-04-02T08:43:37.972Z,92346.00
2023-04-02T08:44:37.995Z,92350.00
2023-04-02T08:45:37.997Z,92348.00
2023-04-02T08:46:38.045Z,92348.00
2023-04-02T08:47:38.031Z,92348.00
2023-04-02T08:48:39.076Z,92346.00
2023-04-02T08:49:38.082Z,92346.00
2023-04-02T08:50:38.016Z,92346.00
2023-04-02T08:51:38.014Z,92346.00
2023-04-02T08:52:38.021Z,92342.00
2023-04-02T08:53:38.028Z,92348.00
2023-04-02T08:54:38.125Z,92344.00
2023-04-02T08:55:38.160Z,92342.00
2023-04-02T08:56:38.034Z,92342.00
2023-04-02T08:57:38.059Z,92340.00
2023-04-02T08:58:38.063Z,92342.00
2023-04-02T08:59:38.065Z,92344.00
2023-04-02T09:00:38.199Z,92342.00
2023-04-02T09:01:38.156Z,92344.00
2023-04-02T09:02:38.088Z,92344.00
2023-04-02T09:03:38.085Z,92344.00
2023-04-02T09:04:38.118Z,92344.00
2023-04-02T09:05:38.135Z,92344.00
2023-04-02T09:06:38.104Z,92346.00
2023-04-02T09:07:38.102Z,92348.00
2023-04-02T09:08:38.111Z,92348.00
2023-04-02T09:09:38.102Z,92348.00
2023-04-02T09:10:38.105Z,92346.00
2023-04-02T09:11:38.109Z,92350.00
2023-04-02T09:12:38.499Z,92350.00
2023-04-02T09:13:38.118Z,92348.00
2023-04-02T09:14:38.120Z,92350.00
2023-04-02T09:15:38.342Z,92350.00
2023-04-02T09:16:38.121Z,92352.00
2023-04-02T09:17:50.711Z,92352.00
2023-04-02T09:18:39.137Z,92354.00
2023-04-02T09:19:38.071Z,92354.00
2023-04-02T09:20:38.046Z,92354.00
2023-04-02T09:21:38.023Z,92356.00
2023-04-02T09:22:37.999Z,92354.00
2023-04-02T09:23:37.991Z,92356.00
2023-04-02T09:24:37.944Z,92354.00
2023-04-02T09:25:38.109Z,92356.00
2023-04-02T09:26:37.899Z,92356.00
2023-04-02T09:27:37.876Z,92356.00
2023-04-02T09:28:37.874Z,92354.00
2023-04-02T09:29:38.012Z,92356.00
2023-04-02T09:30:37.812Z,92363.00
2023-04-02T09:31:37.817Z,92356.00
2023-04-02T09:32:37.936Z,92363.00
2023-04-02T09:33:37.747Z,92365.00
2023-04-02T09:34:37.716Z,92365.00
2023-04-02T09:35:37.888Z,92367.00
2023-04-02T09:36:37.675Z,92369.00
2023-04-02T09:37:37.644Z,92367.00
2023-04-02T09:38:37.634Z,92365.00
2023-04-02T09:39:37.605Z,92369.00
2023-04-02T09:40:37.589Z,92369.00
2023-04-02T09:41:37.581Z,92369.00
2023-04-02T09:42:37.552Z,92371.00
2023-04-02T09:43:37.522Z,92373.00
2023-04-02T09:44:37.505Z,92371.00
2023-04-02T09:45:37.588Z,92373.00
2023-04-02T09:46:37.493Z,92373.00
2023-04-02T09:47:37.522Z,92373.00
2023-04-02T09:48:37.464Z,92373.00
2023-04-02T09:49:37.493Z,92375.00
2023-04-02T09:50:37.469Z,92373.00
2023-04-02T09:51:37.454Z,92377.00
2023-04-02T09:52:37.468Z,92379.00
2023-04-02T09:53:37.443Z,92377.00
2023-04-02T09:54:37.439Z,92379.00
2023-04-02T09:55:37.605Z,92381.00
2023-04-02T09:56:37.420Z,92381.00
2023-04-02T09:57:37.434Z,92383.00
2023-04-02T09:58:37.417Z,92385.00
2023-04-02T09:59:37.411Z,92383.00
2023-04-02T10:00:37.395Z,92381.00
2023-04-02T10:01:37.584Z,92383.00
2023-04-02T10:02:37.464Z,92381.00
2023-04-02T10:03:37.386Z,92381.00
2023-04-02T10:04:37.476Z,92381.00
2023-04-02T10:05:41.212Z,92381.00
2023-04-02T10:06:37.364Z,92379.00
2023-04-02T10:07:37.329Z,92379.00
2023-04-02T10:08:37.300Z,92381.00
2023-04-02T10:09:37.319Z,92385.00
2023-04-02T10:10:37.476Z,92379.00
2023-04-02T10:11:46.071Z,92385.00
2023-04-02T10:12:38.204Z,92385.00
2023-04-02T10:13:37.189Z,92389.00
2023-04-02T10:14:37.165Z,92385.00
2023-04-02T10:15:37.281Z,92389.00
2023-04-02T10:16:37.198Z,92385.00
2023-04-02T10:17:37.097Z,92387.00
2023-04-02T10:18:37.048Z,92389.00
2023-04-02T10:19:37.022Z,92389.00
2023-04-02T10:20:50.494Z,92389.00
2023-04-02T10:21:37.964Z,92387.00
2023-04-02T10:22:36.984Z,92387.00
2023-04-02T10:23:36.922Z,92385.00
2023-04-02T10:24:36.905Z,92387.00
2023-04-02T10:25:37.055Z,92387.00
2023-04-02T10:26:36.853Z,92387.00
2023-04-02T10:27:36.835Z,92389.00
2023-04-02T10:28:36.817Z,92389.00
2023-04-02T10:29:36.780Z,92387.00
2023-04-02T10:30:36.767Z,92391.00
2023-04-02T10:31:36.747Z,92389.00
2023-04-02T10:32:36.770Z,92391.00
2023-04-02T10:33:36.695Z,92393.00
2023-04-02T10:34:36.693Z,92391.00
2023-04-02T10:35:36.812Z,92391.00
2023-04-02T10:36:36.632Z,92391.00
2023-04-02T10:37:36.601Z,92391.00
2023-04-02T10:38:36.582Z,92391.00
2023-04-02T10:39:36.555Z,92391.00
2023-04-02T10:40:36.567Z,92393.00
2023-04-02T10:41:36.518Z,92393.00
2023-04-02T10:42:36.563Z,92394.00
2023-04-02T10:43:36.503Z,92394.00
2023-04-02T10:44:36.448Z,92396.00
2023-04-02T10:45:36.785Z,92394.00
2023-04-02T10:46:36.422Z,92394.00
2023-04-02T10:47:36.492Z,92394.00
2023-04-02T10:48:36.384Z,92396.00
2023-04-02T10:49:36.450Z,92399.00
2023-04-02T10:50:36.447Z,92396.00
2023-04-02T10:51:36.438Z,92396.00
2023-04-02T10:52:36.390Z,92394.00
2023-04-02T10:53:36.387Z,92396.00
2023-04-02T10:54:36.435Z,92396.00
2023-04-02T10:55:36.639Z,92396.00
2023-04-02T10:56:47.879Z,92396.00
2023-04-02T10:57:37.479Z,92396.00
2023-04-02T10:58:36.358Z,92399.00
2023-04-02T10:59:36.337Z,92399.00
2023-04-02T11:00:36.324Z,92399.00
2023-04-02T11:01:36.325Z,92396.00
2023-04-02T11:02:36.376Z,92394.00
2023-04-02T11:03:36.307Z,92396.00
2023-04-02T11:04:36.209Z,92399.00
2023-04-02T11:05:36.449Z,92396.00
2023-04-02T11:06:36.170Z,92401.00
2023-04-02T11:07:36.158Z,92399.00
2023-04-02T11:08:36.144Z,92396.00
2023-04-02T11:09:36.099Z,92399.00
2023-04-02T11:10:36.071Z,92396.00
2023-04-02T11:11:36.054Z,92399.00
2023-04-02T11:12:41.369Z,92396.00
2023-04-02T11:13:37.019Z,92396.00
2023-04-02T11:14:35.973Z,92394.00
2023-04-02T11:15:36.172Z,92396.00
2023-04-02T11:16:39.365Z,92394.00
2023-04-02T11:17:36.911Z,92394.00
2023-04-02T11:18:35.899Z,92394.00
2023-04-02T11:19:35.855Z,92394.00
2023-04-02T11:20:35.816Z,92399.00
2023-04-02T11:21:42.291Z,92399.00
2023-04-02T11:22:36.772Z,92396.00
2023-04-02T11:23:35.756Z,92402.00
2023-04-02T11:24:35.722Z,92401.00
2023-04-02T11:25:36.026Z,92401.00
2023-04-02T11:26:35.672Z,92402.00
2023-04-02T11:27:35.656Z,92402.00
2023-04-02T11:28:35.634Z,92404.00
2023-04-02T11:29:36.476Z,92404.00
2023-04-02T11:30:35.633Z,92406.00
2023-04-02T11:31:35.598Z,92408.00
2023-04-02T11:32:35.562Z,92408.00
2023-04-02T11:33:39.153Z,92406.00
2023-04-02T11:34:36.592Z,92410.00
2023-04-02T11:35:35.708Z,92408.00
2023-04-02T11:36:35.441Z,92408.00
2023-04-02T11:37:35.437Z,92410.00
2023-04-02T11:38:35.392Z,92410.00
2023-04-02T11:39:35.360Z,92410.00
2023-04-02T11:40:35.499Z,92410.00
2023-04-02T11:41:35.305Z,92410.00
2023-04-02T11:42:35.989Z,92412.00
2023-04-02T11:43:35.294Z,92414.00
2023-04-02T11:44:35.225Z,92412.00